Fairbanks, AK

11:38 PM AKDT on August 30, 2014 (GMT -0800)
Eielson Air Force Base | Change Station
CLOSE
Current Station
Airport
Location: Fairbanks Eiels,
Elevation: 548 ft
Nearby Weather Stations
Active Advisory: Frost Advisory

Elev 548 ft 64.67 °N, 147.10 °W | Updated 40 minutes ago

Partly Cloudy
Partly Cloudy
36 °F
Feels Like 36 °F
N
2
Wind Variable Wind from SSE

Today
High -- | Low -- °F
--% Chance of Precip.
Yesterday
High -- | Low -- °F
Precip. -- in
6:25 AM 9:15 PM
Waxing Crescent, 28% visible
Pressure 29.68 in
Visibility 10.0 miles
Clouds Few 6000 ft
Dew Point 30 °F
Humidity 79%
Rainfall 0.00 in
Snow Depth Not available.
UV 0 out of 12
Pollen Not available.
Air Quality Not available.
Flu Activity Not available.
METAR PAEI 310658Z AUTO 16002KT 10SM FEW060 02/M01 A2966 RMK AO2 SLP051 T00221011 $

More Conditions Fewer Conditions

Pressure 29.68 in
Visibility 10.0 miles
Clouds Few 6000 ft
Dew Point 30 °F
Humidity 79%
Rainfall 0.00 in
Snow Depth Not available.
UV 0 out of 12
Pollen Not available.
Air Quality Not available.
Flu Activity Not available.
METAR PAEI 310658Z AUTO 16002KT 10SM FEW060 02/M01 A2966 RMK AO2 SLP051 T00221011 $

More Conditions Fewer Conditions

10-Day Weather Forecast

Almanac

Astronomy

Aug. 30, 2014 Rise Set
Actual Time 6:25 AM AKDT 9:15 PM AKDT
Civil Twilight 5:29 AM AKDT 10:10 PM AKDT
Nautical Twilight 4:07 AM AKDT 11:30 PM AKDT
Astronomical Twilight 2:24 AM AKDT 1:18 AM AKDT
Moon 1:25 PM AKDT (8/30) 9:48 PM AKDT (8/30)
Length of Visible Light 16h 41m
Length of Day
14h 50m
Tomorrow will be 6m 44s shorter.
Waxing Crescent, 28% of the Moon is Illuminated
Aug 31
Waxing Crescent
Sep 2
First Quarter
Sep 8
Full
Sep 15
Last Quarter
Sep 24
New

Community

WunderPhotos

Upload Photos

1,748,809 photos uploaded!

Nearby

Snow Depth

Station Depth Elevation
Little Chena Ridge 1 in 2000 ft
Munson Ridge 0 in 3100 ft
Eagle Summit 0 in 3650 ft
Upper Chena 1 in 2850 ft
Granite Creek 0 in 1240 ft

Earthquake Activity

City Distance Mag. Time & Date
No recent earthquake activity has been reported nearby.
Minimum magnitude displayed is 2.5.

Coastal Water Temperatures

Place Temperature
No Stations Reporting

Nearby Weather Stations